sensor_id;sensor_type;location;lat;lon;timestamp;P1;durP1;ratioP1;P2;durP2;ratioP2
26718;SDS011;14326;50.794;6.060;2023-07-02T00:01:44;20.95;;;6.28;;
26718;SDS011;14326;50.794;6.060;2023-07-02T00:04:20;22.63;;;6.72;;
26718;SDS011;14326;50.794;6.060;2023-07-02T00:07:10;23.45;;;6.53;;
26718;SDS011;14326;50.794;6.060;2023-07-02T00:09:42;20.10;;;6.43;;
26718;SDS011;14326;50.794;6.060;2023-07-02T00:12:29;23.02;;;6.68;;
26718;SDS011;14326;50.794;6.060;2023-07-02T00:15:11;17.90;;;6.22;;
26718;SDS011;14326;50.794;6.060;2023-07-02T00:17:39;25.35;;;6.60;;
26718;SDS011;14326;50.794;6.060;2023-07-02T00:20:06;23.38;;;7.38;;
26718;SDS011;14326;50.794;6.060;2023-07-02T00:22:39;23.63;;;7.55;;
26718;SDS011;14326;50.794;6.060;2023-07-02T00:25:07;23.92;;;6.95;;
26718;SDS011;14326;50.794;6.060;2023-07-02T00:27:33;25.60;;;7.90;;
26718;SDS011;14326;50.794;6.060;2023-07-02T00:30:00;26.83;;;7.78;;
26718;SDS011;14326;50.794;6.060;2023-07-02T00:32:26;23.38;;;7.88;;
26718;SDS011;14326;50.794;6.060;2023-07-02T00:38:22;26.15;;;7.70;;
26718;SDS011;14326;50.794;6.060;2023-07-02T00:41:08;23.02;;;7.72;;
26718;SDS011;14326;50.794;6.060;2023-07-02T00:44:23;23.00;;;7.38;;
26718;SDS011;14326;50.794;6.060;2023-07-02T00:46:40;23.75;;;8.48;;
26718;SDS011;14326;50.794;6.060;2023-07-02T00:49:06;25.48;;;8.35;;
26718;SDS011;14326;50.794;6.060;2023-07-02T00:51:35;25.48;;;8.18;;
26718;SDS011;14326;50.794;6.060;2023-07-02T00:54:03;28.13;;;9.20;;
26718;SDS011;14326;50.794;6.060;2023-07-02T00:56:36;30.15;;;8.85;;
26718;SDS011;14326;50.794;6.060;2023-07-02T00:59:21;24.30;;;8.40;;
26718;SDS011;14326;50.794;6.060;2023-07-02T01:02:22;24.58;;;8.45;;
26718;SDS011;14326;50.794;6.060;2023-07-02T01:05:09;25.42;;;8.27;;
26718;SDS011;14326;50.794;6.060;2023-07-02T01:08:00;27.63;;;9.30;;
26718;SDS011;14326;50.794;6.060;2023-07-02T01:10:50;27.85;;;9.70;;
26718;SDS011;14326;50.794;6.060;2023-07-02T01:13:42;28.65;;;10.40;;
26718;SDS011;14326;50.794;6.060;2023-07-02T01:16:20;28.35;;;9.50;;
26718;SDS011;14326;50.794;6.060;2023-07-02T01:18:48;35.80;;;10.80;;
26718;SDS011;14326;50.794;6.060;2023-07-02T01:21:20;30.02;;;11.00;;
26718;SDS011;14326;50.794;6.060;2023-07-02T01:23:50;30.17;;;10.80;;
26718;SDS011;14326;50.794;6.060;2023-07-02T01:26:37;30.67;;;10.38;;
26718;SDS011;14326;50.794;6.060;2023-07-02T01:29:22;31.63;;;10.82;;
26718;SDS011;14326;50.794;6.060;2023-07-02T01:34:45;26.98;;;9.90;;
26718;SDS011;14326;50.794;6.060;2023-07-02T01:37:15;34.13;;;10.85;;
26718;SDS011;14326;50.794;6.060;2023-07-02T01:39:43;30.75;;;10.30;;
26718;SDS011;14326;50.794;6.060;2023-07-02T01:42:10;26.92;;;10.63;;
26718;SDS011;14326;50.794;6.060;2023-07-02T01:44:40;27.90;;;11.00;;
26718;SDS011;14326;50.794;6.060;2023-07-02T01:47:08;32.15;;;10.90;;
26718;SDS011;14326;50.794;6.060;2023-07-02T01:49:34;29.02;;;10.18;;
26718;SDS011;14326;50.794;6.060;2023-07-02T01:52:09;31.52;;;11.20;;
26718;SDS011;14326;50.794;6.060;2023-07-02T01:54:59;27.92;;;10.93;;
26718;SDS011;14326;50.794;6.060;2023-07-02T01:57:45;32.17;;;10.60;;
26718;SDS011;14326;50.794;6.060;2023-07-02T02:00:37;29.70;;;10.77;;
26718;SDS011;14326;50.794;6.060;2023-07-02T02:03:22;34.22;;;12.15;;
26718;SDS011;14326;50.794;6.060;2023-07-02T02:06:08;29.67;;;10.13;;
26718;SDS011;14326;50.794;6.060;2023-07-02T02:11:37;31.90;;;11.27;;
26718;SDS011;14326;50.794;6.060;2023-07-02T02:14:20;33.38;;;12.25;;
26718;SDS011;14326;50.794;6.060;2023-07-02T02:16:47;28.77;;;11.38;;
26718;SDS011;14326;50.794;6.060;2023-07-02T02:19:22;31.20;;;11.40;;
26718;SDS011;14326;50.794;6.060;2023-07-02T02:22:06;32.85;;;12.30;;
26718;SDS011;14326;50.794;6.060;2023-07-02T02:24:45;35.05;;;12.55;;
26718;SDS011;14326;50.794;6.060;2023-07-02T02:27:27;34.35;;;12.98;;
26718;SDS011;14326;50.794;6.060;2023-07-02T02:30:19;36.40;;;12.60;;
26718;SDS011;14326;50.794;6.060;2023-07-02T02:33:01;31.98;;;12.73;;
26718;SDS011;14326;50.794;6.060;2023-07-02T02:35:37;34.15;;;12.75;;
26718;SDS011;14326;50.794;6.060;2023-07-02T02:38:20;35.15;;;12.35;;
26718;SDS011;14326;50.794;6.060;2023-07-02T02:40:56;34.40;;;13.45;;
26718;SDS011;14326;50.794;6.060;2023-07-02T02:43:24;32.20;;;12.98;;
26718;SDS011;14326;50.794;6.060;2023-07-02T02:45:51;35.42;;;12.65;;
26718;SDS011;14326;50.794;6.060;2023-07-02T02:48:48;34.58;;;13.13;;
26718;SDS011;14326;50.794;6.060;2023-07-02T02:51:15;35.75;;;13.68;;
26718;SDS011;14326;50.794;6.060;2023-07-02T02:53:42;32.65;;;14.00;;
26718;SDS011;14326;50.794;6.060;2023-07-02T02:56:16;39.05;;;14.05;;
26718;SDS011;14326;50.794;6.060;2023-07-02T02:59:32;35.95;;;13.50;;
26718;SDS011;14326;50.794;6.060;2023-07-02T03:02:01;37.95;;;14.82;;
26718;SDS011;14326;50.794;6.060;2023-07-02T03:04:28;35.05;;;14.18;;
26718;SDS011;14326;50.794;6.060;2023-07-02T03:07:00;35.33;;;13.50;;
26718;SDS011;14326;50.794;6.060;2023-07-02T03:09:45;38.22;;;14.88;;
26718;SDS011;14326;50.794;6.060;2023-07-02T03:12:18;36.58;;;14.50;;
26718;SDS011;14326;50.794;6.060;2023-07-02T03:15:11;39.85;;;14.90;;
26718;SDS011;14326;50.794;6.060;2023-07-02T03:17:37;41.38;;;15.20;;
26718;SDS011;14326;50.794;6.060;2023-07-02T03:20:04;41.17;;;15.38;;
26718;SDS011;14326;50.794;6.060;2023-07-02T03:22:33;38.80;;;16.30;;
26718;SDS011;14326;50.794;6.060;2023-07-02T03:25:00;42.03;;;16.23;;
26718;SDS011;14326;50.794;6.060;2023-07-02T03:27:27;45.15;;;15.85;;
26718;SDS011;14326;50.794;6.060;2023-07-02T03:29:55;42.60;;;16.13;;
26718;SDS011;14326;50.794;6.060;2023-07-02T03:32:37;42.55;;;16.60;;
26718;SDS011;14326;50.794;6.060;2023-07-02T03:35:20;41.92;;;18.05;;
26718;SDS011;14326;50.794;6.060;2023-07-02T03:37:47;42.03;;;16.40;;
26718;SDS011;14326;50.794;6.060;2023-07-02T03:40:14;45.17;;;17.00;;
26718;SDS011;14326;50.794;6.060;2023-07-02T03:42:40;43.58;;;16.25;;
26718;SDS011;14326;50.794;6.060;2023-07-02T03:45:12;41.45;;;17.25;;
26718;SDS011;14326;50.794;6.060;2023-07-02T03:48:00;39.58;;;16.52;;
26718;SDS011;14326;50.794;6.060;2023-07-02T03:51:01;43.95;;;16.50;;
26718;SDS011;14326;50.794;6.060;2023-07-02T03:53:42;38.28;;;15.90;;
26718;SDS011;14326;50.794;6.060;2023-07-02T03:56:19;42.60;;;17.08;;
26718;SDS011;14326;50.794;6.060;2023-07-02T03:58:46;40.08;;;17.38;;
26718;SDS011;14326;50.794;6.060;2023-07-02T04:01:12;43.25;;;17.98;;
26718;SDS011;14326;50.794;6.060;2023-07-02T04:03:42;39.78;;;17.67;;
26718;SDS011;14326;50.794;6.060;2023-07-02T04:06:13;45.30;;;17.67;;
26718;SDS011;14326;50.794;6.060;2023-07-02T04:08:40;41.47;;;16.63;;
26718;SDS011;14326;50.794;6.060;2023-07-02T04:11:07;43.03;;;17.15;;
26718;SDS011;14326;50.794;6.060;2023-07-02T04:13:33;41.80;;;17.67;;
26718;SDS011;14326;50.794;6.060;2023-07-02T04:16:00;41.67;;;17.35;;
26718;SDS011;14326;50.794;6.060;2023-07-02T04:18:26;40.72;;;17.42;;
26718;SDS011;14326;50.794;6.060;2023-07-02T04:20:55;43.15;;;16.77;;
26718;SDS011;14326;50.794;6.060;2023-07-02T04:23:22;41.50;;;17.98;;
26718;SDS011;14326;50.794;6.060;2023-07-02T04:25:48;46.45;;;18.88;;
26718;SDS011;14326;50.794;6.060;2023-07-02T04:28:21;44.35;;;18.08;;
26718;SDS011;14326;50.794;6.060;2023-07-02T04:34:20;43.13;;;18.38;;
26718;SDS011;14326;50.794;6.060;2023-07-02T04:37:09;44.10;;;18.63;;
26718;SDS011;14326;50.794;6.060;2023-07-02T04:39:38;53.63;;;19.23;;
26718;SDS011;14326;50.794;6.060;2023-07-02T04:42:16;44.70;;;18.38;;
26718;SDS011;14326;50.794;6.060;2023-07-02T04:44:43;50.90;;;19.60;;
26718;SDS011;14326;50.794;6.060;2023-07-02T04:47:15;50.25;;;19.88;;
26718;SDS011;14326;50.794;6.060;2023-07-02T04:49:51;44.17;;;19.42;;
26718;SDS011;14326;50.794;6.060;2023-07-02T04:52:37;50.72;;;19.58;;
26718;SDS011;14326;50.794;6.060;2023-07-02T04:58:31;50.63;;;20.45;;
26718;SDS011;14326;50.794;6.060;2023-07-02T05:00:58;50.80;;;21.60;;
26718;SDS011;14326;50.794;6.060;2023-07-02T05:03:25;50.00;;;20.20;;
26718;SDS011;14326;50.794;6.060;2023-07-02T05:06:00;50.35;;;21.23;;
26718;SDS011;14326;50.794;6.060;2023-07-02T05:08:59;46.63;;;19.85;;
26718;SDS011;14326;50.794;6.060;2023-07-02T05:11:44;42.30;;;18.65;;
26718;SDS011;14326;50.794;6.060;2023-07-02T05:14:18;49.97;;;19.58;;
26718;SDS011;14326;50.794;6.060;2023-07-02T05:16:45;51.20;;;20.48;;
26718;SDS011;14326;50.794;6.060;2023-07-02T05:19:16;48.90;;;19.58;;
26718;SDS011;14326;50.794;6.060;2023-07-02T05:24:42;48.47;;;20.00;;
26718;SDS011;14326;50.794;6.060;2023-07-02T05:27:09;47.53;;;19.40;;
26718;SDS011;14326;50.794;6.060;2023-07-02T05:29:44;48.45;;;19.77;;
26718;SDS011;14326;50.794;6.060;2023-07-02T05:32:22;53.95;;;20.02;;
26718;SDS011;14326;50.794;6.060;2023-07-02T05:37:57;46.78;;;21.00;;
26718;SDS011;14326;50.794;6.060;2023-07-02T05:41:01;54.78;;;20.88;;
26718;SDS011;14326;50.794;6.060;2023-07-02T05:43:38;46.30;;;19.15;;
26718;SDS011;14326;50.794;6.060;2023-07-02T05:46:25;47.30;;;20.58;;
26718;SDS011;14326;50.794;6.060;2023-07-02T05:51:31;52.42;;;19.98;;
26718;SDS011;14326;50.794;6.060;2023-07-02T05:54:06;49.08;;;20.45;;
26718;SDS011;14326;50.794;6.060;2023-07-02T05:57:09;53.80;;;21.60;;
26718;SDS011;14326;50.794;6.060;2023-07-02T06:00:04;47.30;;;22.17;;
26718;SDS011;14326;50.794;6.060;2023-07-02T06:02:52;54.70;;;21.60;;
26718;SDS011;14326;50.794;6.060;2023-07-02T06:05:27;55.75;;;20.67;;
26718;SDS011;14326;50.794;6.060;2023-07-02T06:07:54;53.42;;;21.63;;
26718;SDS011;14326;50.794;6.060;2023-07-02T06:13:13;55.08;;;22.17;;
26718;SDS011;14326;50.794;6.060;2023-07-02T06:15:41;50.30;;;21.75;;
26718;SDS011;14326;50.794;6.060;2023-07-02T06:18:08;50.88;;;22.00;;
26718;SDS011;14326;50.794;6.060;2023-07-02T06:20:35;60.08;;;23.35;;
26718;SDS011;14326;50.794;6.060;2023-07-02T06:23:01;50.22;;;22.15;;
26718;SDS011;14326;50.794;6.060;2023-07-02T06:25:28;48.70;;;20.83;;
26718;SDS011;14326;50.794;6.060;2023-07-02T06:27:54;52.22;;;21.50;;
26718;SDS011;14326;50.794;6.060;2023-07-02T06:30:24;49.47;;;22.05;;
26718;SDS011;14326;50.794;6.060;2023-07-02T06:32:56;49.25;;;20.63;;
26718;SDS011;14326;50.794;6.060;2023-07-02T06:38:27;51.22;;;20.27;;
26718;SDS011;14326;50.794;6.060;2023-07-02T06:41:06;55.22;;;20.77;;
26718;SDS011;14326;50.794;6.060;2023-07-02T06:43:32;50.30;;;21.33;;
26718;SDS011;14326;50.794;6.060;2023-07-02T06:46:00;45.55;;;19.42;;
26718;SDS011;14326;50.794;6.060;2023-07-02T06:48:27;52.78;;;21.25;;
26718;SDS011;14326;50.794;6.060;2023-07-02T06:50:55;47.10;;;19.90;;
26718;SDS011;14326;50.794;6.060;2023-07-02T06:53:22;47.00;;;19.88;;
26718;SDS011;14326;50.794;6.060;2023-07-02T06:55:48;52.10;;;20.95;;
26718;SDS011;14326;50.794;6.060;2023-07-02T06:58:15;48.78;;;20.42;;
26718;SDS011;14326;50.794;6.060;2023-07-02T07:00:41;45.70;;;19.48;;
26718;SDS011;14326;50.794;6.060;2023-07-02T07:03:09;48.58;;;19.58;;
26718;SDS011;14326;50.794;6.060;2023-07-02T07:05:36;49.72;;;19.35;;
26718;SDS011;14326;50.794;6.060;2023-07-02T07:08:02;49.15;;;19.63;;
26718;SDS011;14326;50.794;6.060;2023-07-02T07:13:28;46.38;;;19.95;;
26718;SDS011;14326;50.794;6.060;2023-07-02T07:15:58;56.60;;;21.92;;
26718;SDS011;14326;50.794;6.060;2023-07-02T07:18:35;58.70;;;23.25;;
26718;SDS011;14326;50.794;6.060;2023-07-02T07:21:01;55.80;;;20.70;;
26718;SDS011;14326;50.794;6.060;2023-07-02T07:23:28;51.33;;;21.65;;
26718;SDS011;14326;50.794;6.060;2023-07-02T07:26:08;45.72;;;21.27;;
26718;SDS011;14326;50.794;6.060;2023-07-02T07:28:53;49.30;;;20.40;;
26718;SDS011;14326;50.794;6.060;2023-07-02T07:31:21;50.70;;;19.95;;
26718;SDS011;14326;50.794;6.060;2023-07-02T07:34:11;52.10;;;22.13;;
26718;SDS011;14326;50.794;6.060;2023-07-02T07:37:07;52.85;;;20.98;;
26718;SDS011;14326;50.794;6.060;2023-07-02T07:39:56;47.15;;;20.25;;
26718;SDS011;14326;50.794;6.060;2023-07-02T07:42:43;48.70;;;20.33;;
26718;SDS011;14326;50.794;6.060;2023-07-02T07:45:10;48.63;;;20.13;;
26718;SDS011;14326;50.794;6.060;2023-07-02T07:47:51;47.88;;;21.10;;
26718;SDS011;14326;50.794;6.060;2023-07-02T07:50:39;51.28;;;19.30;;
26718;SDS011;14326;50.794;6.060;2023-07-02T07:53:47;50.55;;;20.90;;
26718;SDS011;14326;50.794;6.060;2023-07-02T07:55:58;51.47;;;20.33;;
26718;SDS011;14326;50.794;6.060;2023-07-02T07:58:25;52.63;;;19.98;;
26718;SDS011;14326;50.794;6.060;2023-07-02T08:00:51;51.80;;;18.77;;
26718;SDS011;14326;50.794;6.060;2023-07-02T08:03:18;47.00;;;18.48;;
26718;SDS011;14326;50.794;6.060;2023-07-02T08:05:59;46.05;;;19.02;;
26718;SDS011;14326;50.794;6.060;2023-07-02T08:08:50;44.10;;;17.63;;
26718;SDS011;14326;50.794;6.060;2023-07-02T08:11:29;47.08;;;18.83;;
26718;SDS011;14326;50.794;6.060;2023-07-02T08:14:08;41.60;;;16.55;;
26718;SDS011;14326;50.794;6.060;2023-07-02T08:16:38;41.00;;;15.85;;
26718;SDS011;14326;50.794;6.060;2023-07-02T08:19:05;48.65;;;16.65;;
26718;SDS011;14326;50.794;6.060;2023-07-02T08:21:44;40.63;;;17.52;;
26718;SDS011;14326;50.794;6.060;2023-07-02T08:24:33;49.65;;;17.35;;
26718;SDS011;14326;50.794;6.060;2023-07-02T08:27:08;46.17;;;17.10;;
26718;SDS011;14326;50.794;6.060;2023-07-02T08:29:54;48.78;;;17.15;;
26718;SDS011;14326;50.794;6.060;2023-07-02T08:35:36;39.03;;;15.65;;
26718;SDS011;14326;50.794;6.060;2023-07-02T08:38:04;37.13;;;15.93;;
26718;SDS011;14326;50.794;6.060;2023-07-02T08:40:31;42.53;;;16.77;;
26718;SDS011;14326;50.794;6.060;2023-07-02T08:42:57;39.38;;;16.20;;
26718;SDS011;14326;50.794;6.060;2023-07-02T08:45:24;44.55;;;17.30;;
26718;SDS011;14326;50.794;6.060;2023-07-02T08:47:51;38.22;;;16.10;;
26718;SDS011;14326;50.794;6.060;2023-07-02T08:50:21;42.40;;;16.70;;
26718;SDS011;14326;50.794;6.060;2023-07-02T08:52:48;44.47;;;17.27;;
26718;SDS011;14326;50.794;6.060;2023-07-02T08:55:16;43.47;;;17.95;;
26718;SDS011;14326;50.794;6.060;2023-07-02T08:57:47;45.95;;;18.30;;
26718;SDS011;14326;50.794;6.060;2023-07-02T09:00:16;46.75;;;18.08;;
26718;SDS011;14326;50.794;6.060;2023-07-02T09:02:43;45.70;;;17.80;;
26718;SDS011;14326;50.794;6.060;2023-07-02T09:05:17;41.55;;;18.05;;
26718;SDS011;14326;50.794;6.060;2023-07-02T09:07:58;39.85;;;16.60;;
26718;SDS011;14326;50.794;6.060;2023-07-02T09:14:03;40.95;;;17.13;;
26718;SDS011;14326;50.794;6.060;2023-07-02T09:16:30;48.47;;;17.33;;
26718;SDS011;14326;50.794;6.060;2023-07-02T09:19:01;39.40;;;15.77;;
26718;SDS011;14326;50.794;6.060;2023-07-02T09:21:37;39.95;;;15.98;;
26718;SDS011;14326;50.794;6.060;2023-07-02T09:24:14;41.97;;;16.35;;
26718;SDS011;14326;50.794;6.060;2023-07-02T09:27:07;41.33;;;16.95;;
26718;SDS011;14326;50.794;6.060;2023-07-02T09:29:35;38.97;;;16.73;;
26718;SDS011;14326;50.794;6.060;2023-07-02T09:32:02;40.70;;;16.55;;
26718;SDS011;14326;50.794;6.060;2023-07-02T09:34:33;41.08;;;15.80;;
26718;SDS011;14326;50.794;6.060;2023-07-02T09:37:00;38.53;;;15.32;;
26718;SDS011;14326;50.794;6.060;2023-07-02T09:39:28;39.33;;;15.32;;
26718;SDS011;14326;50.794;6.060;2023-07-02T09:42:08;37.55;;;14.98;;
26718;SDS011;14326;50.794;6.060;2023-07-02T09:44:52;37.50;;;15.05;;
26718;SDS011;14326;50.794;6.060;2023-07-02T09:47:21;33.70;;;14.23;;
26718;SDS011;14326;50.794;6.060;2023-07-02T09:49:49;38.22;;;13.15;;
26718;SDS011;14326;50.794;6.060;2023-07-02T09:52:20;35.75;;;14.98;;
26718;SDS011;14326;50.794;6.060;2023-07-02T09:54:47;37.63;;;14.15;;
26718;SDS011;14326;50.794;6.060;2023-07-02T09:57:14;35.50;;;14.57;;
26718;SDS011;14326;50.794;6.060;2023-07-02T09:59:41;38.97;;;14.68;;
26718;SDS011;14326;50.794;6.060;2023-07-02T10:02:24;39.45;;;15.02;;
26718;SDS011;14326;50.794;6.060;2023-07-02T10:04:56;38.40;;;14.40;;
26718;SDS011;14326;50.794;6.060;2023-07-02T10:07:39;36.90;;;14.65;;
26718;SDS011;14326;50.794;6.060;2023-07-02T10:13:27;33.42;;;14.40;;
26718;SDS011;14326;50.794;6.060;2023-07-02T10:16:07;36.90;;;13.63;;
26718;SDS011;14326;50.794;6.060;2023-07-02T10:18:40;37.40;;;15.70;;
26718;SDS011;14326;50.794;6.060;2023-07-02T10:21:20;31.55;;;13.27;;
26718;SDS011;14326;50.794;6.060;2023-07-02T10:24:19;37.85;;;15.27;;
26718;SDS011;14326;50.794;6.060;2023-07-02T10:26:59;32.85;;;14.18;;
26718;SDS011;14326;50.794;6.060;2023-07-02T10:29:35;31.88;;;12.55;;
26718;SDS011;14326;50.794;6.060;2023-07-02T10:32:40;35.53;;;14.40;;
26718;SDS011;14326;50.794;6.060;2023-07-02T10:35:17;35.47;;;14.10;;
26718;SDS011;14326;50.794;6.060;2023-07-02T10:38:06;33.85;;;12.40;;
26718;SDS011;14326;50.794;6.060;2023-07-02T10:40:38;42.35;;;14.70;;
26718;SDS011;14326;50.794;6.060;2023-07-02T10:43:29;37.70;;;13.80;;
26718;SDS011;14326;50.794;6.060;2023-07-02T10:46:24;36.10;;;14.70;;
26718;SDS011;14326;50.794;6.060;2023-07-02T10:48:51;37.05;;;13.88;;
26718;SDS011;14326;50.794;6.060;2023-07-02T10:51:20;33.50;;;13.07;;
26718;SDS011;14326;50.794;6.060;2023-07-02T10:53:56;36.90;;;13.80;;
26718;SDS011;14326;50.794;6.060;2023-07-02T10:56:32;36.92;;;14.00;;
26718;SDS011;14326;50.794;6.060;2023-07-02T10:59:08;35.50;;;12.68;;
26718;SDS011;14326;50.794;6.060;2023-07-02T11:01:36;32.25;;;13.20;;
26718;SDS011;14326;50.794;6.060;2023-07-02T11:04:19;31.83;;;11.75;;
26718;SDS011;14326;50.794;6.060;2023-07-02T11:07:05;35.40;;;13.55;;
26718;SDS011;14326;50.794;6.060;2023-07-02T11:09:32;32.95;;;12.55;;
26718;SDS011;14326;50.794;6.060;2023-07-02T11:11:59;33.53;;;13.23;;
26718;SDS011;14326;50.794;6.060;2023-07-02T11:14:30;32.80;;;12.23;;
26718;SDS011;14326;50.794;6.060;2023-07-02T11:16:57;33.15;;;11.27;;
26718;SDS011;14326;50.794;6.060;2023-07-02T11:19:27;26.83;;;11.00;;
26718;SDS011;14326;50.794;6.060;2023-07-02T11:21:54;30.88;;;11.45;;
26718;SDS011;14326;50.794;6.060;2023-07-02T11:24:27;31.60;;;10.68;;
26718;SDS011;14326;50.794;6.060;2023-07-02T11:26:56;33.17;;;11.85;;
26718;SDS011;14326;50.794;6.060;2023-07-02T11:29:23;31.20;;;11.98;;
26718;SDS011;14326;50.794;6.060;2023-07-02T11:32:30;32.35;;;11.63;;
26718;SDS011;14326;50.794;6.060;2023-07-02T11:35:15;31.85;;;11.68;;
26718;SDS011;14326;50.794;6.060;2023-07-02T11:37:58;31.77;;;12.65;;
26718;SDS011;14326;50.794;6.060;2023-07-02T11:40:52;32.35;;;11.65;;
26718;SDS011;14326;50.794;6.060;2023-07-02T11:43:51;30.05;;;11.93;;
26718;SDS011;14326;50.794;6.060;2023-07-02T11:46:17;36.05;;;11.68;;
26718;SDS011;14326;50.794;6.060;2023-07-02T11:48:44;34.85;;;12.70;;
26718;SDS011;14326;50.794;6.060;2023-07-02T11:51:10;34.30;;;12.07;;
26718;SDS011;14326;50.794;6.060;2023-07-02T11:53:39;30.52;;;11.93;;
26718;SDS011;14326;50.794;6.060;2023-07-02T11:56:16;32.60;;;12.70;;
26718;SDS011;14326;50.794;6.060;2023-07-02T11:58:57;28.65;;;11.77;;
26718;SDS011;14326;50.794;6.060;2023-07-02T12:01:24;29.38;;;10.88;;
26718;SDS011;14326;50.794;6.060;2023-07-02T12:03:52;28.98;;;11.73;;
26718;SDS011;14326;50.794;6.060;2023-07-02T12:06:39;36.38;;;12.05;;
26718;SDS011;14326;50.794;6.060;2023-07-02T12:09:37;33.45;;;12.55;;
26718;SDS011;14326;50.794;6.060;2023-07-02T12:12:39;31.42;;;12.05;;
26718;SDS011;14326;50.794;6.060;2023-07-02T12:15:06;36.72;;;11.80;;
26718;SDS011;14326;50.794;6.060;2023-07-02T12:17:33;28.88;;;10.80;;
26718;SDS011;14326;50.794;6.060;2023-07-02T12:20:00;31.17;;;11.25;;
26718;SDS011;14326;50.794;6.060;2023-07-02T12:22:35;32.80;;;12.10;;
26718;SDS011;14326;50.794;6.060;2023-07-02T12:25:21;31.23;;;10.75;;
26718;SDS011;14326;50.794;6.060;2023-07-02T12:27:49;30.20;;;11.35;;
26718;SDS011;14326;50.794;6.060;2023-07-02T12:30:15;32.53;;;12.02;;
26718;SDS011;14326;50.794;6.060;2023-07-02T12:32:43;35.17;;;11.32;;
26718;SDS011;14326;50.794;6.060;2023-07-02T12:35:10;32.15;;;12.05;;
26718;SDS011;14326;50.794;6.060;2023-07-02T12:37:52;31.10;;;12.18;;
26718;SDS011;14326;50.794;6.060;2023-07-02T12:40:19;31.40;;;11.32;;
26718;SDS011;14326;50.794;6.060;2023-07-02T12:42:47;35.22;;;12.35;;
26718;SDS011;14326;50.794;6.060;2023-07-02T12:45:15;30.40;;;11.55;;
26718;SDS011;14326;50.794;6.060;2023-07-02T12:47:42;32.88;;;12.23;;
26718;SDS011;14326;50.794;6.060;2023-07-02T12:50:09;38.17;;;13.15;;
26718;SDS011;14326;50.794;6.060;2023-07-02T12:55:21;34.58;;;11.85;;
26718;SDS011;14326;50.794;6.060;2023-07-02T12:57:49;36.80;;;13.27;;
26718;SDS011;14326;50.794;6.060;2023-07-02T13:00:15;32.40;;;12.30;;
26718;SDS011;14326;50.794;6.060;2023-07-02T13:02:42;32.92;;;11.90;;
26718;SDS011;14326;50.794;6.060;2023-07-02T13:05:09;32.97;;;12.45;;
26718;SDS011;14326;50.794;6.060;2023-07-02T13:07:35;31.10;;;10.95;;
26718;SDS011;14326;50.794;6.060;2023-07-02T13:10:07;29.83;;;11.18;;
26718;SDS011;14326;50.794;6.060;2023-07-02T13:12:54;35.28;;;13.20;;
26718;SDS011;14326;50.794;6.060;2023-07-02T13:15:21;32.08;;;11.82;;
26718;SDS011;14326;50.794;6.060;2023-07-02T13:17:47;27.50;;;11.07;;
26718;SDS011;14326;50.794;6.060;2023-07-02T13:20:14;31.60;;;11.68;;
26718;SDS011;14326;50.794;6.060;2023-07-02T13:22:41;27.85;;;11.52;;
26718;SDS011;14326;50.794;6.060;2023-07-02T13:25:07;29.98;;;10.30;;
26718;SDS011;14326;50.794;6.060;2023-07-02T13:27:34;28.23;;;11.38;;
26718;SDS011;14326;50.794;6.060;2023-07-02T13:30:04;32.35;;;12.57;;
26718;SDS011;14326;50.794;6.060;2023-07-02T13:35:51;33.28;;;12.77;;
26718;SDS011;14326;50.794;6.060;2023-07-02T13:38:30;33.55;;;11.52;;
26718;SDS011;14326;50.794;6.060;2023-07-02T13:40:57;28.40;;;11.55;;
26718;SDS011;14326;50.794;6.060;2023-07-02T13:43:24;32.67;;;11.85;;
26718;SDS011;14326;50.794;6.060;2023-07-02T13:45:52;32.65;;;11.73;;
26718;SDS011;14326;50.794;6.060;2023-07-02T13:48:19;34.03;;;12.27;;
26718;SDS011;14326;50.794;6.060;2023-07-02T13:50:45;32.08;;;12.07;;
26718;SDS011;14326;50.794;6.060;2023-07-02T13:53:12;31.15;;;12.43;;
26718;SDS011;14326;50.794;6.060;2023-07-02T13:55:39;31.73;;;12.05;;
26718;SDS011;14326;50.794;6.060;2023-07-02T13:58:10;34.95;;;11.52;;
26718;SDS011;14326;50.794;6.060;2023-07-02T14:00:58;32.97;;;13.43;;
26718;SDS011;14326;50.794;6.060;2023-07-02T14:03:25;30.50;;;11.88;;
26718;SDS011;14326;50.794;6.060;2023-07-02T14:05:51;32.20;;;12.45;;
26718;SDS011;14326;50.794;6.060;2023-07-02T14:08:18;36.20;;;12.68;;
26718;SDS011;14326;50.794;6.060;2023-07-02T14:10:45;32.03;;;12.52;;
26718;SDS011;14326;50.794;6.060;2023-07-02T14:13:12;31.15;;;11.32;;
26718;SDS011;14326;50.794;6.060;2023-07-02T14:15:39;35.47;;;11.68;;
26718;SDS011;14326;50.794;6.060;2023-07-02T14:21:07;30.85;;;11.18;;
26718;SDS011;14326;50.794;6.060;2023-07-02T14:23:34;30.48;;;11.88;;
26718;SDS011;14326;50.794;6.060;2023-07-02T14:26:01;34.15;;;11.90;;
26718;SDS011;14326;50.794;6.060;2023-07-02T14:28:27;28.17;;;10.73;;
26718;SDS011;14326;50.794;6.060;2023-07-02T14:30:57;29.23;;;12.20;;
26718;SDS011;14326;50.794;6.060;2023-07-02T14:35:59;31.02;;;12.10;;
26718;SDS011;14326;50.794;6.060;2023-07-02T14:38:26;31.88;;;12.55;;
26718;SDS011;14326;50.794;6.060;2023-07-02T14:40:54;32.42;;;12.77;;
26718;SDS011;14326;50.794;6.060;2023-07-02T14:43:28;31.20;;;11.85;;
26718;SDS011;14326;50.794;6.060;2023-07-02T14:46:01;34.13;;;12.40;;
26718;SDS011;14326;50.794;6.060;2023-07-02T14:51:16;32.85;;;12.15;;
26718;SDS011;14326;50.794;6.060;2023-07-02T14:53:42;36.45;;;11.93;;
26718;SDS011;14326;50.794;6.060;2023-07-02T14:56:16;33.53;;;11.63;;
26718;SDS011;14326;50.794;6.060;2023-07-02T14:58:59;33.60;;;12.05;;
26718;SDS011;14326;50.794;6.060;2023-07-02T15:04:37;31.88;;;11.85;;
26718;SDS011;14326;50.794;6.060;2023-07-02T15:09:52;33.17;;;12.30;;
26718;SDS011;14326;50.794;6.060;2023-07-02T15:12:44;30.33;;;11.70;;
26718;SDS011;14326;50.794;6.060;2023-07-02T15:15:12;28.52;;;10.65;;
26718;SDS011;14326;50.794;6.060;2023-07-02T15:17:42;35.30;;;12.70;;
26718;SDS011;14326;50.794;6.060;2023-07-02T15:20:39;31.80;;;10.98;;
26718;SDS011;14326;50.794;6.060;2023-07-02T15:23:32;31.92;;;11.30;;
26718;SDS011;14326;50.794;6.060;2023-07-02T15:26:11;33.42;;;12.30;;
26718;SDS011;14326;50.794;6.060;2023-07-02T15:28:37;30.83;;;11.18;;
26718;SDS011;14326;50.794;6.060;2023-07-02T15:31:04;30.67;;;11.55;;
26718;SDS011;14326;50.794;6.060;2023-07-02T15:33:32;32.88;;;12.32;;
26718;SDS011;14326;50.794;6.060;2023-07-02T15:35:59;30.75;;;11.40;;
26718;SDS011;14326;50.794;6.060;2023-07-02T15:38:27;30.85;;;11.30;;
26718;SDS011;14326;50.794;6.060;2023-07-02T15:41:05;34.15;;;11.50;;
26718;SDS011;14326;50.794;6.060;2023-07-02T15:43:34;30.80;;;11.43;;
26718;SDS011;14326;50.794;6.060;2023-07-02T15:46:01;32.10;;;10.45;;
26718;SDS011;14326;50.794;6.060;2023-07-02T15:48:29;31.25;;;11.65;;
26718;SDS011;14326;50.794;6.060;2023-07-02T15:50:56;31.60;;;10.57;;
26718;SDS011;14326;50.794;6.060;2023-07-02T15:53:23;33.40;;;11.23;;
26718;SDS011;14326;50.794;6.060;2023-07-02T15:55:53;27.45;;;10.68;;
26718;SDS011;14326;50.794;6.060;2023-07-02T15:58:22;34.20;;;10.90;;
26718;SDS011;14326;50.794;6.060;2023-07-02T16:00:49;33.97;;;11.77;;
26718;SDS011;14326;50.794;6.060;2023-07-02T16:03:16;31.02;;;11.27;;
26718;SDS011;14326;50.794;6.060;2023-07-02T16:05:43;36.13;;;11.10;;
26718;SDS011;14326;50.794;6.060;2023-07-02T16:08:09;29.35;;;11.23;;